createdAt,value
2018-08-02T00:00:07.815Z,4.10
2018-08-02T00:01:07.997Z,4.00
2018-08-02T00:02:08.178Z,4.20
2018-08-02T00:03:08.362Z,4.10
2018-08-02T00:04:08.540Z,4.60
2018-08-02T00:05:08.721Z,4.60
2018-08-02T00:06:08.905Z,4.40
2018-08-02T00:07:09.087Z,4.10
2018-08-02T00:08:09.269Z,4.60
2018-08-02T00:09:09.444Z,4.70
2018-08-02T00:10:09.625Z,4.00
2018-08-02T00:11:09.812Z,4.20
2018-08-02T00:12:09.991Z,4.10
2018-08-02T00:13:10.167Z,5.40
2018-08-02T00:14:10.341Z,3.90
2018-08-02T00:15:10.521Z,3.80
2018-08-02T00:16:10.702Z,5.50
2018-08-02T00:17:10.879Z,4.20
2018-08-02T00:18:11.053Z,4.40
2018-08-02T00:19:11.243Z,5.40
2018-08-02T00:20:11.412Z,4.90
2018-08-02T00:21:11.600Z,4.10
2018-08-02T00:22:11.776Z,4.50
2018-08-02T00:23:11.960Z,4.40
2018-08-02T00:24:12.140Z,4.20
2018-08-02T00:25:12.316Z,4.40
2018-08-02T00:26:12.497Z,4.80
2018-08-02T00:27:12.670Z,4.40
2018-08-02T00:28:12.849Z,4.60
2018-08-02T00:29:13.028Z,4.20
2018-08-02T00:30:13.202Z,5.10
2018-08-02T00:31:13.379Z,4.60
2018-08-02T00:32:13.556Z,4.20
2018-08-02T00:33:13.740Z,4.50
2018-08-02T00:34:13.920Z,4.00
2018-08-02T00:35:14.096Z,4.30
2018-08-02T00:36:14.279Z,4.60
2018-08-02T00:37:14.450Z,4.80
2018-08-02T00:38:14.631Z,5.70
2018-08-02T00:39:14.818Z,4.20
2018-08-02T00:40:14.994Z,4.60
2018-08-02T00:41:15.174Z,4.80
2018-08-02T00:42:15.352Z,4.60
2018-08-02T00:43:15.532Z,4.10
2018-08-02T00:44:15.716Z,4.20
2018-08-02T00:45:15.895Z,4.30
2018-08-02T00:46:16.075Z,4.20
2018-08-02T00:47:16.251Z,4.60
2018-08-02T00:48:16.427Z,3.90
2018-08-02T00:49:16.604Z,4.90
2018-08-02T00:50:16.778Z,4.40
2018-08-02T00:51:16.960Z,4.70
2018-08-02T00:52:17.137Z,4.40
2018-08-02T00:53:17.316Z,4.70
2018-08-02T00:54:17.533Z,4.40
2018-08-02T00:55:17.686Z,5.30
2018-08-02T00:56:17.860Z,4.10
2018-08-02T00:57:18.041Z,4.40
2018-08-02T00:58:18.232Z,4.10
2018-08-02T00:59:18.407Z,4.50
2018-08-02T01:00:18.581Z,4.00
2018-08-02T01:01:18.756Z,3.90
2018-08-02T01:02:18.932Z,4.30
2018-08-02T01:03:19.108Z,5.00
2018-08-02T01:04:19.287Z,4.00
2018-08-02T01:05:19.462Z,4.50
2018-08-02T01:06:19.639Z,4.80
2018-08-02T01:07:19.816Z,5.20
2018-08-02T01:08:20.001Z,5.60
2018-08-02T01:09:20.176Z,5.50
2018-08-02T01:10:20.350Z,5.80
2018-08-02T01:11:20.525Z,6.60
2018-08-02T01:12:20.705Z,5.20
2018-08-02T01:13:20.881Z,7.30
2018-08-02T01:14:21.062Z,5.20
2018-08-02T01:15:21.242Z,5.40
2018-08-02T01:16:21.416Z,4.80
2018-08-02T01:17:21.594Z,6.90
2018-08-02T01:18:21.772Z,4.70
2018-08-02T01:19:21.943Z,7.30
2018-08-02T01:20:22.124Z,5.00
2018-08-02T01:21:22.305Z,5.50
2018-08-02T01:22:22.484Z,5.00
2018-08-02T01:23:22.662Z,6.50
2018-08-02T01:24:22.837Z,5.50
2018-08-02T01:25:23.015Z,4.80
2018-08-02T01:26:23.193Z,5.10
2018-08-02T01:27:23.371Z,5.80
2018-08-02T01:28:23.543Z,5.60
2018-08-02T01:29:23.723Z,5.50
2018-08-02T01:30:23.902Z,4.90
2018-08-02T01:31:24.083Z,6.40
2018-08-02T01:32:24.262Z,5.40
2018-08-02T01:33:24.434Z,6.30
2018-08-02T01:34:24.608Z,5.90
2018-08-02T01:35:24.790Z,5.20
2018-08-02T01:36:24.972Z,5.80
2018-08-02T01:37:25.154Z,5.60
2018-08-02T01:38:25.331Z,5.30
2018-08-02T01:39:25.508Z,4.90
2018-08-02T01:40:25.691Z,5.10
2018-08-02T01:41:25.867Z,5.30
2018-08-02T01:42:26.046Z,5.40
2018-08-02T01:43:26.221Z,6.10
2018-08-02T01:44:26.404Z,5.20
2018-08-02T01:45:26.590Z,5.60
2018-08-02T01:46:26.765Z,6.30
2018-08-02T01:47:26.942Z,6.00
2018-08-02T01:48:27.125Z,5.00
2018-08-02T01:49:27.300Z,5.40
2018-08-02T01:50:27.473Z,5.20
2018-08-02T01:51:27.650Z,5.80
2018-08-02T01:52:27.829Z,5.10
2018-08-02T01:53:28.012Z,4.60
2018-08-02T01:54:28.187Z,4.70
2018-08-02T01:55:28.360Z,4.80
2018-08-02T01:56:28.540Z,5.40
2018-08-02T01:57:28.718Z,4.70
2018-08-02T01:58:28.896Z,6.00
2018-08-02T01:59:31.431Z,5.10
2018-08-02T02:00:30.901Z,5.20
2018-08-02T02:01:32.958Z,4.50
2018-08-02T02:02:33.984Z,6.50
2018-08-02T02:03:32.406Z,4.80
2018-08-02T02:04:35.236Z,5.80
2018-08-02T02:05:31.664Z,5.40
2018-08-02T02:06:32.149Z,5.80
2018-08-02T02:07:31.224Z,4.60
2018-08-02T02:08:32.247Z,5.70
2018-08-02T02:09:30.855Z,5.00
2018-08-02T02:10:31.026Z,6.90
2018-08-02T02:11:31.208Z,5.00
2018-08-02T02:12:31.390Z,5.20
2018-08-02T02:13:31.565Z,4.70
2018-08-02T02:14:31.743Z,5.10
2018-08-02T02:15:31.914Z,6.00
2018-08-02T02:16:32.089Z,5.40
2018-08-02T02:17:32.272Z,5.10
2018-08-02T02:18:32.449Z,4.90
2018-08-02T02:19:32.626Z,6.60
2018-08-02T02:20:32.803Z,4.80
2018-08-02T02:21:32.985Z,4.80
2018-08-02T02:22:33.165Z,4.90
2018-08-02T02:23:33.349Z,5.90
2018-08-02T02:24:33.524Z,5.20
2018-08-02T02:25:33.700Z,4.90
2018-08-02T02:26:33.875Z,4.70
2018-08-02T02:27:34.054Z,4.40
2018-08-02T02:28:34.239Z,5.20
2018-08-02T02:29:34.416Z,4.60
2018-08-02T02:30:34.587Z,4.90
2018-08-02T02:31:34.764Z,5.90
2018-08-02T02:32:34.940Z,5.20
2018-08-02T02:33:35.117Z,5.60
2018-08-02T02:34:35.298Z,5.00
2018-08-02T02:35:35.471Z,5.10
2018-08-02T02:36:35.673Z,4.60
2018-08-02T02:37:35.833Z,4.70
2018-08-02T02:38:36.014Z,4.60
2018-08-02T02:39:36.211Z,4.60
2018-08-02T02:40:36.371Z,4.90
2018-08-02T02:41:36.544Z,5.70
2018-08-02T02:42:36.730Z,4.80
2018-08-02T02:43:36.907Z,4.40
2018-08-02T02:44:37.082Z,5.90
2018-08-02T02:45:37.269Z,5.30
2018-08-02T02:46:37.446Z,4.80
2018-08-02T02:47:37.621Z,5.40
2018-08-02T02:48:37.799Z,4.70
2018-08-02T02:49:37.973Z,5.00
2018-08-02T02:50:38.155Z,5.10
2018-08-02T02:51:38.324Z,5.30
2018-08-02T02:52:38.503Z,5.00
2018-08-02T02:53:38.682Z,6.00
2018-08-02T02:54:38.859Z,5.40
2018-08-02T02:55:39.040Z,5.80
2018-08-02T02:56:39.214Z,5.50
2018-08-02T02:57:39.399Z,5.20
2018-08-02T02:58:39.633Z,5.80
2018-08-02T02:59:39.757Z,6.80
2018-08-02T03:00:39.935Z,5.20
2018-08-02T03:01:40.112Z,6.20
2018-08-02T03:02:40.303Z,5.00
2018-08-02T03:03:40.482Z,7.00
2018-08-02T03:04:40.660Z,5.40
2018-08-02T03:05:40.838Z,5.80
2018-08-02T03:06:41.019Z,5.90
2018-08-02T03:07:41.197Z,5.90
2018-08-02T03:08:41.378Z,5.70
2018-08-02T03:09:41.555Z,7.10
2018-08-02T03:10:41.730Z,5.30
2018-08-02T03:11:41.910Z,5.80
2018-08-02T03:12:42.084Z,7.20
2018-08-02T03:13:42.262Z,5.50
2018-08-02T03:14:42.439Z,5.70
2018-08-02T03:15:42.618Z,5.80
2018-08-02T03:16:42.795Z,6.00
2018-08-02T03:17:42.969Z,6.50
2018-08-02T03:18:43.153Z,6.30
2018-08-02T03:19:43.325Z,6.00
2018-08-02T03:20:43.500Z,6.70
2018-08-02T03:21:43.672Z,6.70
2018-08-02T03:22:43.849Z,6.50
2018-08-02T03:23:44.022Z,6.20
2018-08-02T03:24:44.202Z,6.90
2018-08-02T03:25:44.383Z,6.20
2018-08-02T03:26:44.555Z,5.70
2018-08-02T03:27:50.427Z,5.70
2018-08-02T03:28:44.854Z,6.10
2018-08-02T03:29:45.037Z,5.80
2018-08-02T03:30:45.213Z,5.90
2018-08-02T03:31:45.390Z,6.20
2018-08-02T03:32:45.567Z,5.10
2018-08-02T03:33:45.752Z,5.70
2018-08-02T03:34:45.930Z,5.70
2018-08-02T03:35:46.104Z,5.90
2018-08-02T03:36:46.287Z,6.20
2018-08-02T03:37:46.465Z,5.50
2018-08-02T03:38:46.647Z,6.10
2018-08-02T03:39:46.821Z,6.30
2018-08-02T03:40:46.996Z,5.80
2018-08-02T03:41:47.173Z,6.20
2018-08-02T03:42:47.346Z,5.70
2018-08-02T03:43:47.527Z,6.90
2018-08-02T03:44:47.711Z,7.20
2018-08-02T03:45:47.902Z,6.60
2018-08-02T03:46:48.081Z,6.90
2018-08-02T03:47:48.248Z,8.10
2018-08-02T03:48:48.437Z,7.20
2018-08-02T03:49:48.612Z,6.30
2018-08-02T03:50:48.799Z,6.80
2018-08-02T03:51:48.969Z,6.30
2018-08-02T03:52:49.148Z,6.20
2018-08-02T03:53:49.409Z,6.60
2018-08-02T03:54:49.529Z,7.50
2018-08-02T03:55:49.682Z,6.40
2018-08-02T03:56:49.857Z,7.00
2018-08-02T03:57:50.030Z,6.20
2018-08-02T03:58:50.211Z,6.80
2018-08-02T03:59:50.390Z,6.20
2018-08-02T04:00:50.571Z,6.50
2018-08-02T04:01:51.100Z,6.80
2018-08-02T04:02:51.203Z,6.70
2018-08-02T04:03:51.343Z,6.80
2018-08-02T04:04:51.143Z,7.30
2018-08-02T04:05:51.315Z,8.50
2018-08-02T04:06:51.495Z,6.30
2018-08-02T04:07:51.760Z,6.90
2018-08-02T04:08:51.855Z,6.30
2018-08-02T04:09:52.265Z,6.40
2018-08-02T04:10:52.252Z,6.20
2018-08-02T04:11:52.426Z,6.50
2018-08-02T04:12:52.621Z,6.00
2018-08-02T04:13:52.798Z,6.10
2018-08-02T04:14:52.984Z,7.10
2018-08-02T04:15:53.160Z,7.00
2018-08-02T04:16:53.342Z,6.20
2018-08-02T04:17:53.517Z,5.90
2018-08-02T04:18:53.720Z,6.50
2018-08-02T04:19:53.902Z,6.20
2018-08-02T04:20:54.075Z,6.60
2018-08-02T04:21:54.258Z,6.00
2018-08-02T04:22:54.445Z,6.10
2018-08-02T04:23:55.175Z,6.00
2018-08-02T04:24:54.965Z,5.80
2018-08-02T04:25:55.107Z,6.20
2018-08-02T04:26:56.730Z,6.60
2018-08-02T04:27:55.412Z,6.00
2018-08-02T04:29:00.129Z,5.80
2018-08-02T04:29:55.528Z,6.00
2018-08-02T04:30:55.703Z,7.10
2018-08-02T04:31:55.887Z,6.30
2018-08-02T04:32:57.785Z,5.80
2018-08-02T04:33:56.297Z,6.50
2018-08-02T04:34:56.436Z,5.70
2018-08-02T04:35:56.623Z,5.30
2018-08-02T04:36:56.804Z,5.10
2018-08-02T04:37:56.994Z,5.60
2018-08-02T04:38:57.182Z,5.60
2018-08-02T04:39:57.349Z,5.50
2018-08-02T04:40:57.531Z,5.40
2018-08-02T04:41:57.780Z,5.30
2018-08-02T04:42:57.897Z,5.30
2018-08-02T04:43:58.077Z,5.80
2018-08-02T04:44:58.257Z,5.50
2018-08-02T04:45:58.448Z,5.50
2018-08-02T04:46:58.605Z,5.50
2018-08-02T04:47:58.803Z,5.80
2018-08-02T04:48:58.969Z,6.60
2018-08-02T04:49:59.143Z,5.60
2018-08-02T04:50:59.413Z,5.40
2018-08-02T04:51:59.480Z,5.20
2018-08-02T04:52:59.737Z,5.80
2018-08-02T04:53:59.854Z,5.60
2018-08-02T04:55:00.032Z,5.70
2018-08-02T04:56:00.219Z,5.40
2018-08-02T04:57:00.459Z,5.70
2018-08-02T04:58:00.632Z,6.00
2018-08-02T04:59:00.815Z,5.20
2018-08-02T05:00:01.000Z,5.40
2018-08-02T05:01:01.181Z,4.80
2018-08-02T05:02:01.413Z,5.70
2018-08-02T05:03:01.470Z,5.60
2018-08-02T05:04:01.669Z,4.90
2018-08-02T05:05:01.869Z,5.00
2018-08-02T05:06:02.072Z,5.30
2018-08-02T05:07:02.250Z,5.40
2018-08-02T05:08:02.600Z,5.40
2018-08-02T05:09:02.652Z,4.90
2018-08-02T05:10:03.105Z,5.30
2018-08-02T05:11:03.195Z,5.40
2018-08-02T05:12:03.256Z,6.10
2018-08-02T05:13:04.810Z,5.00
2018-08-02T05:14:03.467Z,5.70
2018-08-02T05:15:03.725Z,5.30
2018-08-02T05:16:03.795Z,6.90
2018-08-02T05:17:04.113Z,5.80
2018-08-02T05:18:05.282Z,5.80
2018-08-02T05:19:05.064Z,7.20
2018-08-02T05:20:05.574Z,7.50
2018-08-02T05:21:05.285Z,6.50
2018-08-02T05:22:05.696Z,6.00
2018-08-02T05:23:06.747Z,5.90
2018-08-02T05:24:06.421Z,5.90
2018-08-02T05:25:05.529Z,5.70
2018-08-02T05:26:05.847Z,6.20
2018-08-02T05:27:06.014Z,5.80
2018-08-02T05:28:05.974Z,5.60
2018-08-02T05:29:06.155Z,5.30
2018-08-02T05:30:06.342Z,5.80
2018-08-02T05:31:06.513Z,5.70
2018-08-02T05:32:06.692Z,5.80
2018-08-02T05:33:06.869Z,5.60
2018-08-02T05:34:07.054Z,5.70
2018-08-02T05:35:07.426Z,6.00
2018-08-02T05:36:07.716Z,5.80
2018-08-02T05:37:07.655Z,5.80
2018-08-02T05:38:07.872Z,5.30
2018-08-02T05:39:08.059Z,5.60
2018-08-02T05:40:08.459Z,5.70
2018-08-02T05:41:08.469Z,5.40
2018-08-02T05:42:08.658Z,5.90
2018-08-02T05:43:08.857Z,5.80
2018-08-02T05:44:09.066Z,5.70
2018-08-02T05:45:09.242Z,5.50
2018-08-02T05:46:09.423Z,5.40
2018-08-02T05:47:09.621Z,5.40
2018-08-02T05:48:09.826Z,4.60
2018-08-02T05:49:10.266Z,5.20
2018-08-02T05:50:10.240Z,5.00
2018-08-02T05:51:10.431Z,5.00
2018-08-02T05:52:10.616Z,4.50
2018-08-02T05:53:10.932Z,5.00
2018-08-02T05:54:10.941Z,4.70
2018-08-02T05:55:11.136Z,4.70
2018-08-02T05:56:11.363Z,6.60
2018-08-02T05:57:11.536Z,5.40
2018-08-02T05:58:11.728Z,5.90
2018-08-02T05:59:11.907Z,4.60
2018-08-02T06:00:12.091Z,4.20
2018-08-02T06:01:12.280Z,4.70
2018-08-02T06:02:12.983Z,4.80
2018-08-02T06:03:12.694Z,4.40
2018-08-02T06:04:12.918Z,4.80
2018-08-02T06:05:13.139Z,5.00
2018-08-02T06:06:13.344Z,5.90
2018-08-02T06:07:13.577Z,5.10
2018-08-02T06:08:13.607Z,5.20
2018-08-02T06:09:13.776Z,5.20
2018-08-02T06:10:14.117Z,5.70
2018-08-02T06:11:14.107Z,4.50
2018-08-02T06:12:14.260Z,4.70
2018-08-02T06:13:14.601Z,4.50
2018-08-02T06:14:14.532Z,5.30
2018-08-02T06:15:14.794Z,5.00
2018-08-02T06:16:14.858Z,4.90
2018-08-02T06:17:15.119Z,4.80
2018-08-02T06:18:15.215Z,4.90
2018-08-02T06:19:15.322Z,4.30
2018-08-02T06:20:18.775Z,4.30
2018-08-02T06:21:15.574Z,5.40
2018-08-02T06:22:15.783Z,4.30
2018-08-02T06:23:17.739Z,4.60
2018-08-02T06:24:16.209Z,6.20
2018-08-02T06:25:16.251Z,5.10
2018-08-02T06:26:16.428Z,4.40
2018-08-02T06:27:16.611Z,4.40
2018-08-02T06:28:16.850Z,4.10
2018-08-02T06:29:17.228Z,5.50
2018-08-02T06:30:17.528Z,3.40
2018-08-02T06:31:17.477Z,4.10
2018-08-02T06:32:17.470Z,4.20
2018-08-02T06:33:17.650Z,3.80
2018-08-02T06:34:17.836Z,5.60
2018-08-02T06:35:18.024Z,4.20
2018-08-02T06:36:18.211Z,3.70
2018-08-02T06:37:18.434Z,3.80
2018-08-02T06:38:18.776Z,4.00
2018-08-02T06:39:18.806Z,4.00
2018-08-02T06:40:18.824Z,3.80
2018-08-02T06:41:19.006Z,3.90
2018-08-02T06:42:19.187Z,3.80
2018-08-02T06:43:19.386Z,5.60
2018-08-02T06:44:19.567Z,4.70
2018-08-02T06:45:19.943Z,3.90
2018-08-02T06:46:20.003Z,3.90
2018-08-02T06:47:20.197Z,3.50
2018-08-02T06:48:20.377Z,3.70
2018-08-02T06:49:20.558Z,3.80
2018-08-02T06:50:20.810Z,3.80
2018-08-02T06:51:21.180Z,4.50
2018-08-02T06:52:21.080Z,4.70
2018-08-02T06:53:21.262Z,4.40
2018-08-02T06:54:21.446Z,4.00
2018-08-02T06:55:21.620Z,4.00
2018-08-02T06:56:21.818Z,4.50
2018-08-02T06:57:21.991Z,3.20
2018-08-02T06:58:27.710Z,3.90
2018-08-02T06:59:22.334Z,3.90
2018-08-02T07:00:22.509Z,3.80
2018-08-02T07:01:24.085Z,4.20
2018-08-02T07:02:23.271Z,3.80
2018-08-02T07:03:23.059Z,4.60
2018-08-02T07:04:23.285Z,3.90
2018-08-02T07:05:23.817Z,4.20
2018-08-02T07:06:23.634Z,3.80
2018-08-02T07:07:24.190Z,4.30
2018-08-02T07:08:24.000Z,3.90
2018-08-02T07:09:24.473Z,4.30
2018-08-02T07:10:24.313Z,3.90
2018-08-02T07:11:24.921Z,4.60
2018-08-02T07:12:25.286Z,3.60
2018-08-02T07:13:25.170Z,4.10
2018-08-02T07:14:25.146Z,3.60
2018-08-02T07:15:25.103Z,3.30
2018-08-02T07:16:25.646Z,4.10
2018-08-02T07:17:25.634Z,4.00
2018-08-02T07:18:25.669Z,4.00
2018-08-02T07:19:25.862Z,4.30
2018-08-02T07:20:26.769Z,3.50
2018-08-02T07:21:26.788Z,3.30
2018-08-02T07:22:26.301Z,3.20
2018-08-02T07:23:26.990Z,4.00
2018-08-02T07:24:27.402Z,3.30
2018-08-02T07:25:26.800Z,3.70
2018-08-02T07:26:26.884Z,3.30
2018-08-02T07:27:27.016Z,3.30
2018-08-02T07:28:27.089Z,3.30
2018-08-02T07:29:27.280Z,4.90
2018-08-02T07:30:27.466Z,4.00
2018-08-02T07:31:27.655Z,3.60
2018-08-02T07:32:27.832Z,3.70
2018-08-02T07:33:28.039Z,3.60
2018-08-02T07:34:28.221Z,3.30
2018-08-02T07:35:28.399Z,3.50
2018-08-02T07:36:28.592Z,3.10
2018-08-02T07:37:28.816Z,3.50
2018-08-02T07:38:29.081Z,2.90
2018-08-02T07:39:29.145Z,3.00
2018-08-02T07:40:29.331Z,3.30
2018-08-02T07:41:29.516Z,2.90
2018-08-02T07:42:29.731Z,3.30
2018-08-02T07:43:29.952Z,3.50
2018-08-02T07:44:30.596Z,4.40
2018-08-02T07:45:30.270Z,2.80
2018-08-02T07:46:30.757Z,3.00
2018-08-02T07:47:30.734Z,3.20
2018-08-02T07:48:31.028Z,3.30
2018-08-02T07:49:31.457Z,3.00
2018-08-02T07:50:31.168Z,2.90
2018-08-02T07:51:31.355Z,3.30
2018-08-02T07:52:31.745Z,3.20
2018-08-02T07:53:31.833Z,3.10
2018-08-02T07:54:32.563Z,3.20
2018-08-02T07:55:33.726Z,3.90
2018-08-02T07:56:32.259Z,3.00
2018-08-02T07:57:32.444Z,2.80
2018-08-02T07:58:32.976Z,3.10
2018-08-02T07:59:32.824Z,3.10
2018-08-02T08:00:33.053Z,3.30
2018-08-02T08:01:33.215Z,3.20
2018-08-02T08:02:33.510Z,3.30
2018-08-02T08:03:33.538Z,3.30
2018-08-02T08:04:33.748Z,2.90
2018-08-02T08:05:33.948Z,3.10
2018-08-02T08:06:34.527Z,3.00
2018-08-02T08:07:34.606Z,2.80
2018-08-02T08:08:34.607Z,3.10
2018-08-02T08:09:34.947Z,3.00
2018-08-02T08:10:35.104Z,3.70
2018-08-02T08:11:36.034Z,2.90
2018-08-02T08:12:36.510Z,2.90
2018-08-02T08:13:36.062Z,3.70
2018-08-02T08:14:35.930Z,3.60
2018-08-02T08:15:36.929Z,3.20
2018-08-02T08:16:37.014Z,3.60
2018-08-02T08:17:36.414Z,3.90
2018-08-02T08:18:36.665Z,3.10
2018-08-02T08:19:36.666Z,3.30
2018-08-02T08:20:36.577Z,3.20
2018-08-02T08:21:36.775Z,3.30
2018-08-02T08:22:37.104Z,3.20
2018-08-02T08:23:37.214Z,2.80
2018-08-02T08:24:37.290Z,3.80
2018-08-02T08:25:39.196Z,3.30
2018-08-02T08:26:37.655Z,7.50
2018-08-02T08:27:37.854Z,3.10
2018-08-02T08:28:38.071Z,3.30
2018-08-02T08:29:38.315Z,3.70
2018-08-02T08:30:38.483Z,3.40
2018-08-02T08:31:38.625Z,2.90
2018-08-02T08:32:38.953Z,3.60
2018-08-02T08:33:38.983Z,3.60
2018-08-02T08:34:39.193Z,3.10
2018-08-02T08:35:39.367Z,3.60
2018-08-02T08:36:39.556Z,3.60
2018-08-02T08:37:39.823Z,3.20
2018-08-02T08:38:39.944Z,3.40
2018-08-02T08:39:40.153Z,3.20
2018-08-02T08:40:40.341Z,3.60
2018-08-02T08:41:40.547Z,4.20
2018-08-02T08:42:40.741Z,3.50
2018-08-02T08:43:40.930Z,3.10
2018-08-02T08:44:41.126Z,3.60
2018-08-02T08:45:41.312Z,2.90
2018-08-02T08:46:41.504Z,3.10
2018-08-02T08:47:41.705Z,3.30
2018-08-02T08:48:41.885Z,3.40
2018-08-02T08:49:42.279Z,3.00
2018-08-02T08:50:42.339Z,3.80
2018-08-02T08:51:42.577Z,3.40
2018-08-02T08:52:44.104Z,3.20
2018-08-02T08:53:44.197Z,3.50
2018-08-02T08:54:44.098Z,3.50
2018-08-02T08:55:44.210Z,3.50
2018-08-02T08:56:44.418Z,3.20
2018-08-02T08:57:44.211Z,3.10
2018-08-02T08:58:45.035Z,2.80
2018-08-02T08:59:45.607Z,3.30
2018-08-02T09:00:43.973Z,3.80
2018-08-02T09:01:44.162Z,3.20
2018-08-02T09:02:44.355Z,3.50
2018-08-02T09:03:44.572Z,3.60
2018-08-02T09:04:44.761Z,4.40
2018-08-02T09:05:44.952Z,2.80
2018-08-02T09:06:45.133Z,3.20
2018-08-02T09:07:45.324Z,3.00
2018-08-02T09:08:45.509Z,3.00
2018-08-02T09:09:45.728Z,3.90
2018-08-02T09:10:45.977Z,3.40
2018-08-02T09:11:46.047Z,3.30
2018-08-02T09:12:46.246Z,3.40
2018-08-02T09:13:46.452Z,3.20
2018-08-02T09:14:46.628Z,3.00
2018-08-02T09:15:46.817Z,2.70
2018-08-02T09:16:46.996Z,3.10
2018-08-02T09:17:47.197Z,3.10
2018-08-02T09:18:47.419Z,3.00
2018-08-02T09:19:47.617Z,2.90
2018-08-02T09:20:47.800Z,2.80
2018-08-02T09:21:47.999Z,3.10
2018-08-02T09:22:48.184Z,3.00
2018-08-02T09:23:48.385Z,2.90
2018-08-02T09:24:48.612Z,2.80
2018-08-02T09:25:48.886Z,4.50
2018-08-02T09:26:49.076Z,2.70
2018-08-02T09:27:49.088Z,3.10
2018-08-02T09:28:49.298Z,3.00
2018-08-02T09:29:49.511Z,3.60
2018-08-02T09:30:49.708Z,2.50
2018-08-02T09:31:49.905Z,3.10
2018-08-02T09:32:50.304Z,2.70
2018-08-02T09:33:50.295Z,3.10
2018-08-02T09:34:50.480Z,3.10
2018-08-02T09:35:50.678Z,2.70
2018-08-02T09:36:50.869Z,3.10
2018-08-02T09:37:51.077Z,2.90
2018-08-02T09:38:51.280Z,3.20
2018-08-02T09:39:51.793Z,2.90
2018-08-02T09:40:51.847Z,3.10
2018-08-02T09:41:51.910Z,3.00
2018-08-02T09:42:52.055Z,2.80
2018-08-02T09:43:52.251Z,2.80
2018-08-02T09:44:52.565Z,2.80
2018-08-02T09:45:52.414Z,2.70
2018-08-02T09:46:53.794Z,2.50
2018-08-02T09:47:53.208Z,2.90
2018-08-02T09:48:52.995Z,3.70
2018-08-02T09:49:53.799Z,3.10
2018-08-02T09:50:54.797Z,3.20
2018-08-02T09:51:53.953Z,2.60
2018-08-02T09:52:53.688Z,2.60
2018-08-02T09:53:53.993Z,2.80
2018-08-02T09:54:54.392Z,2.80
2018-08-02T09:55:55.813Z,2.80
2018-08-02T09:56:55.882Z,2.90
2018-08-02T09:57:54.667Z,2.70
2018-08-02T09:58:56.511Z,3.10
2018-08-02T09:59:54.847Z,2.70
2018-08-02T10:00:56.170Z,3.00
2018-08-02T10:01:56.089Z,3.10
2018-08-02T10:02:55.353Z,3.10
2018-08-02T10:03:55.526Z,2.90
2018-08-02T10:04:55.719Z,2.80
2018-08-02T10:05:55.920Z,2.80
2018-08-02T10:06:56.099Z,2.40
2018-08-02T10:07:56.290Z,2.50
2018-08-02T10:08:56.481Z,3.10
2018-08-02T10:09:56.696Z,2.50
2018-08-02T10:10:56.889Z,2.70
2018-08-02T10:11:57.090Z,2.70
2018-08-02T10:12:57.275Z,2.70
2018-08-02T10:13:57.469Z,2.60
2018-08-02T10:14:57.681Z,2.80
2018-08-02T10:15:57.916Z,3.00
2018-08-02T10:16:58.068Z,3.60
2018-08-02T10:17:58.262Z,3.00
2018-08-02T10:18:58.460Z,2.70
2018-08-02T10:19:58.648Z,2.60
2018-08-02T10:20:58.839Z,2.60
2018-08-02T10:21:59.032Z,2.50
2018-08-02T10:22:59.250Z,2.60
2018-08-02T10:23:59.456Z,2.30
2018-08-02T10:24:59.655Z,2.50
2018-08-02T10:25:59.844Z,2.50
2018-08-02T10:27:00.047Z,2.90
2018-08-02T10:28:00.294Z,2.40
2018-08-02T10:29:00.372Z,2.10
2018-08-02T10:30:00.557Z,2.40
2018-08-02T10:31:00.828Z,2.40
2018-08-02T10:32:00.995Z,2.50
2018-08-02T10:33:01.190Z,2.60
2018-08-02T10:34:01.379Z,2.50
2018-08-02T10:35:01.606Z,2.60
2018-08-02T10:36:01.813Z,2.40
2018-08-02T10:37:01.977Z,2.40
2018-08-02T10:38:02.176Z,2.50
2018-08-02T10:39:02.388Z,2.50
2018-08-02T10:40:02.577Z,3.20
2018-08-02T10:41:03.083Z,2.50
2018-08-02T10:42:03.294Z,3.00
2018-08-02T10:43:03.459Z,3.00
2018-08-02T10:44:03.827Z,2.60
2018-08-02T10:45:03.497Z,2.80
2018-08-02T10:46:03.550Z,2.60
2018-08-02T10:47:04.469Z,2.90
2018-08-02T10:48:04.252Z,2.50
2018-08-02T10:49:04.258Z,2.90
2018-08-02T10:50:04.574Z,2.60
2018-08-02T10:51:04.678Z,2.90
2018-08-02T10:52:05.062Z,2.50
2018-08-02T10:53:05.046Z,3.00
2018-08-02T10:54:04.991Z,3.50
2018-08-02T10:55:05.332Z,2.70
2018-08-02T10:56:05.699Z,2.90
2018-08-02T10:57:06.334Z,2.60
2018-08-02T10:58:05.576Z,2.50
2018-08-02T10:59:05.819Z,2.60
2018-08-02T11:00:05.949Z,2.50
2018-08-02T11:01:06.101Z,2.90
2018-08-02T11:02:06.581Z,2.80
2018-08-02T11:03:06.528Z,3.00
2018-08-02T11:04:07.175Z,2.70
2018-08-02T11:05:07.034Z,2.40
2018-08-02T11:06:07.337Z,2.40
2018-08-02T11:07:07.173Z,2.80
2018-08-02T11:08:07.347Z,2.60
2018-08-02T11:09:07.462Z,2.70
2018-08-02T11:10:07.658Z,2.60
2018-08-02T11:11:07.981Z,2.60
2018-08-02T11:12:08.135Z,2.20
2018-08-02T11:13:08.186Z,2.50
2018-08-02T11:14:08.727Z,2.70
2018-08-02T11:15:09.890Z,2.60
2018-08-02T11:16:09.051Z,2.70
2018-08-02T11:17:09.038Z,2.90
2018-08-02T11:18:09.230Z,2.80
2018-08-02T11:19:09.345Z,2.70
2018-08-02T11:20:09.496Z,2.50
2018-08-02T11:21:09.666Z,2.30
2018-08-02T11:22:09.578Z,2.60
2018-08-02T11:23:09.788Z,2.20
2018-08-02T11:24:09.992Z,2.20
2018-08-02T11:25:10.224Z,2.50
2018-08-02T11:26:10.417Z,2.50
2018-08-02T11:27:10.607Z,2.20
2018-08-02T11:28:10.843Z,2.50
2018-08-02T11:29:11.009Z,2.30
2018-08-02T11:30:11.370Z,2.30
2018-08-02T11:31:11.445Z,2.50
2018-08-02T11:32:11.667Z,2.60
2018-08-02T11:33:11.945Z,2.60
2018-08-02T11:34:12.015Z,2.50
2018-08-02T11:35:12.280Z,2.30
2018-08-02T11:36:13.327Z,2.30
2018-08-02T11:37:12.529Z,2.50
2018-08-02T11:38:12.721Z,2.50
2018-08-02T11:39:12.915Z,2.20
2018-08-02T11:40:13.118Z,2.30
2018-08-02T11:41:13.321Z,2.40
2018-08-02T11:42:13.515Z,2.20
2018-08-02T11:43:14.003Z,2.30
2018-08-02T11:44:13.844Z,2.30
2018-08-02T11:45:16.593Z,2.70
2018-08-02T11:46:15.299Z,2.20
2018-08-02T11:47:15.941Z,2.60
2018-08-02T11:48:15.943Z,2.40
2018-08-02T11:49:17.012Z,2.80
2018-08-02T11:50:16.413Z,2.40
2018-08-02T11:51:16.743Z,2.40
2018-08-02T11:52:15.942Z,2.50
2018-08-02T11:53:19.993Z,2.50
2018-08-02T11:54:18.648Z,2.20
2018-08-02T11:55:16.404Z,2.30
2018-08-02T11:56:17.984Z,2.50
2018-08-02T11:57:16.685Z,2.50
2018-08-02T11:58:16.843Z,2.70
2018-08-02T11:59:16.920Z,2.50
2018-08-02T12:00:17.860Z,2.70
2018-08-02T12:01:17.348Z,2.60
2018-08-02T12:02:19.118Z,2.50
2018-08-02T12:03:18.166Z,2.70
2018-08-02T12:04:18.410Z,2.80
2018-08-02T12:05:19.026Z,2.50
2018-08-02T12:06:18.631Z,2.50
2018-08-02T12:07:20.642Z,2.70
2018-08-02T12:08:19.332Z,2.60
2018-08-02T12:09:19.333Z,2.80
2018-08-02T12:10:21.195Z,2.60
2018-08-02T12:11:19.551Z,2.70
2018-08-02T12:12:19.760Z,2.50
2018-08-02T12:13:20.576Z,2.50
2018-08-02T12:14:19.890Z,2.60
2018-08-02T12:15:20.412Z,2.60
2018-08-02T12:16:21.501Z,2.90
2018-08-02T12:17:20.879Z,2.50
2018-08-02T12:18:20.753Z,3.20
2018-08-02T12:19:21.858Z,2.50
2018-08-02T12:20:21.707Z,3.40
2018-08-02T12:21:21.575Z,2.50
2018-08-02T12:22:22.615Z,2.50
2018-08-02T12:23:21.639Z,2.70
2018-08-02T12:24:22.498Z,2.60
2018-08-02T12:25:22.246Z,2.60
2018-08-02T12:26:22.738Z,2.40
2018-08-02T12:27:23.197Z,2.40
2018-08-02T12:28:22.519Z,2.70
2018-08-02T12:29:22.774Z,2.40
2018-08-02T12:30:22.774Z,2.80
2018-08-02T12:31:23.886Z,2.90
2018-08-02T12:32:29.446Z,3.80
2018-08-02T12:33:28.326Z,2.80
2018-08-02T12:34:23.778Z,2.40
2018-08-02T12:35:23.418Z,2.70
2018-08-02T12:36:24.011Z,2.50
2018-08-02T12:37:27.290Z,2.70
2018-08-02T12:38:27.542Z,2.50
2018-08-02T12:39:23.962Z,3.40
2018-08-02T12:40:24.463Z,2.90
2018-08-02T12:41:24.405Z,2.90
2018-08-02T12:42:24.979Z,2.60
2018-08-02T12:43:25.028Z,2.60
2018-08-02T12:44:25.120Z,2.70
2018-08-02T12:45:25.236Z,2.50
2018-08-02T12:46:25.570Z,2.70
2018-08-02T12:47:25.624Z,2.90
2018-08-02T12:48:25.771Z,2.80
2018-08-02T12:49:26.085Z,2.70
2018-08-02T12:50:26.196Z,2.80
2018-08-02T12:51:26.323Z,2.60
2018-08-02T12:52:26.584Z,2.70
2018-08-02T12:53:26.728Z,2.70
2018-08-02T12:54:27.337Z,2.90
2018-08-02T12:55:27.346Z,3.40
2018-08-02T12:56:27.227Z,2.70
2018-08-02T12:57:27.351Z,3.00
2018-08-02T12:58:27.382Z,2.50
2018-08-02T12:59:27.537Z,2.70
2018-08-02T13:00:27.585Z,2.80
2018-08-02T13:01:27.811Z,3.10
2018-08-02T13:02:28.135Z,2.80
2018-08-02T13:03:28.250Z,2.70
2018-08-02T13:04:28.469Z,2.90
2018-08-02T13:05:28.511Z,2.90
2018-08-02T13:06:28.803Z,3.00
2018-08-02T13:07:28.938Z,3.20
2018-08-02T13:08:29.084Z,3.30
2018-08-02T13:09:29.714Z,2.60
2018-08-02T13:10:29.378Z,3.00
2018-08-02T13:11:29.578Z,3.20
2018-08-02T13:12:29.660Z,2.70
2018-08-02T13:13:30.026Z,2.80
2018-08-02T13:14:30.193Z,2.90
2018-08-02T13:15:33.370Z,3.00
2018-08-02T13:16:30.392Z,3.00
2018-08-02T13:17:30.592Z,2.90
2018-08-02T13:18:30.403Z,2.90
2018-08-02T13:19:30.596Z,3.10
2018-08-02T13:20:30.782Z,2.90